createdAt,value
2023-05-03T00:00:43.365Z,14.55
2023-05-03T00:05:45.761Z,13.40
2023-05-03T00:10:47.780Z,13.43
2023-05-03T00:15:50.220Z,13.73
2023-05-03T00:20:54.679Z,12.95
2023-05-03T00:25:57.666Z,13.73
2023-05-03T00:31:07.939Z,13.50
2023-05-03T00:36:14.574Z,13.15
2023-05-03T00:41:16.821Z,13.85
2023-05-03T00:46:18.851Z,12.85
2023-05-03T00:51:21.830Z,13.13
2023-05-03T00:56:23.877Z,12.88
2023-05-03T01:01:26.470Z,12.45
2023-05-03T01:06:56.828Z,13.63
2023-05-03T01:12:12.080Z,13.02
2023-05-03T01:17:18.405Z,12.68
2023-05-03T01:22:38.931Z,13.07
2023-05-03T01:27:41.640Z,12.73
2023-05-03T01:33:08.264Z,12.48
2023-05-03T01:38:11.311Z,13.20
2023-05-03T01:43:16.413Z,12.60
2023-05-03T01:48:19.682Z,12.50
2023-05-03T01:53:21.550Z,12.65
2023-05-03T01:58:23.343Z,12.63
2023-05-03T02:03:25.204Z,11.73
2023-05-03T02:08:27.027Z,12.65
2023-05-03T02:13:28.855Z,12.10
2023-05-03T02:18:31.571Z,12.40
2023-05-03T02:23:33.398Z,12.38
2023-05-03T02:28:35.331Z,12.52
2023-05-03T02:33:37.869Z,11.52
2023-05-03T02:38:39.697Z,12.30
2023-05-03T02:43:41.595Z,11.55
2023-05-03T02:48:43.727Z,11.63
2023-05-03T02:53:46.615Z,12.00
2023-05-03T02:58:48.589Z,11.98
2023-05-03T03:03:50.720Z,11.68
2023-05-03T03:08:52.878Z,12.07
2023-05-03T03:13:55.018Z,11.63
2023-05-03T03:19:02.109Z,11.10
2023-05-03T03:24:04.833Z,11.40
2023-05-03T03:29:06.857Z,10.80
2023-05-03T03:34:09.673Z,11.00
2023-05-03T03:39:11.792Z,11.40
2023-05-03T03:44:14.768Z,10.90
2023-05-03T03:49:16.928Z,11.07
2023-05-03T03:54:19.006Z,11.25
2023-05-03T03:59:25.134Z,11.30
2023-05-03T04:04:27.192Z,11.75
2023-05-03T04:09:30.799Z,12.15
2023-05-03T04:14:32.807Z,12.32
2023-05-03T04:19:35.393Z,12.40
2023-05-03T04:24:39.766Z,12.30
2023-05-03T04:29:43.929Z,13.30
2023-05-03T04:34:49.089Z,12.75
2023-05-03T04:39:52.636Z,12.15
2023-05-03T04:44:55.497Z,12.68
2023-05-03T04:49:57.796Z,12.43
2023-05-03T04:54:59.766Z,13.25
2023-05-03T05:00:02.515Z,13.25
2023-05-03T05:05:04.912Z,12.98
2023-05-03T05:10:08.871Z,13.48
2023-05-03T05:15:11.479Z,13.23
2023-05-03T05:20:15.273Z,13.32
2023-05-03T05:25:22.230Z,13.60
2023-05-03T05:30:25.081Z,13.68
2023-05-03T05:35:27.515Z,13.85
2023-05-03T05:40:29.500Z,13.95
2023-05-03T05:45:34.551Z,14.52
2023-05-03T05:50:37.847Z,14.30
2023-05-03T05:55:44.334Z,13.48
2023-05-03T06:00:49.152Z,14.05
2023-05-03T06:05:52.194Z,13.90
2023-05-03T06:10:55.411Z,14.15
2023-05-03T06:15:58.709Z,13.55
2023-05-03T06:21:00.996Z,13.45
2023-05-03T06:26:02.846Z,13.48
2023-05-03T06:31:05.200Z,13.32
2023-05-03T06:36:08.270Z,13.80
2023-05-03T06:41:11.854Z,14.05
2023-05-03T06:46:13.937Z,14.27
2023-05-03T06:51:15.916Z,14.30
2023-05-03T06:56:17.995Z,13.43
2023-05-03T07:01:20.798Z,13.70
2023-05-03T07:06:25.497Z,15.15
2023-05-03T07:11:27.410Z,14.07
2023-05-03T07:16:29.332Z,14.23
2023-05-03T07:21:31.764Z,14.48
2023-05-03T07:26:34.416Z,14.38
2023-05-03T07:31:36.868Z,13.60
2023-05-03T07:36:39.566Z,13.70
2023-05-03T07:41:41.399Z,14.48
2023-05-03T07:46:43.405Z,14.85
2023-05-03T07:51:45.256Z,14.52
2023-05-03T07:56:47.067Z,14.32
2023-05-03T08:01:48.970Z,14.85
2023-05-03T08:06:50.989Z,14.75
2023-05-03T08:11:52.917Z,15.65
2023-05-03T08:16:55.596Z,15.35
2023-05-03T08:21:58.367Z,15.52
2023-05-03T08:27:00.248Z,16.13
2023-05-03T08:32:02.367Z,15.98
2023-05-03T08:37:05.468Z,15.10
2023-05-03T08:42:10.388Z,14.60
2023-05-03T08:47:15.048Z,14.52
2023-05-03T08:52:18.364Z,15.30
2023-05-03T08:57:23.816Z,14.88
2023-05-03T09:02:25.800Z,15.13
2023-05-03T09:07:27.730Z,14.90
2023-05-03T09:12:41.410Z,14.65
2023-05-03T09:17:43.601Z,15.15
2023-05-03T09:22:52.573Z,15.48
2023-05-03T09:28:01.952Z,15.02
2023-05-03T09:33:04.781Z,14.82
2023-05-03T09:38:07.251Z,14.43
2023-05-03T09:43:11.454Z,15.25
2023-05-03T09:48:13.969Z,15.43
2023-05-03T09:53:18.806Z,14.95
2023-05-03T09:58:24.880Z,14.57
2023-05-03T10:03:34.794Z,14.65
2023-05-03T10:08:49.719Z,14.38
2023-05-03T10:13:52.014Z,14.90
2023-05-03T10:19:07.176Z,14.90
2023-05-03T10:24:16.239Z,15.25
2023-05-03T10:29:34.536Z,15.32
2023-05-03T10:34:39.737Z,14.85
2023-05-03T10:39:46.691Z,15.13
2023-05-03T10:44:55.428Z,14.85
2023-05-03T10:50:15.609Z,14.35
2023-05-03T10:55:21.042Z,14.63
2023-05-03T11:00:24.748Z,14.98
2023-05-03T11:05:28.627Z,14.98
2023-05-03T11:10:30.694Z,14.95
2023-05-03T11:15:33.275Z,14.93
2023-05-03T11:20:38.635Z,14.88
2023-05-03T11:25:43.358Z,14.55
2023-05-03T11:30:46.855Z,14.73
2023-05-03T11:35:48.814Z,15.15
2023-05-03T11:40:50.717Z,14.68
2023-05-03T11:45:56.469Z,14.85
2023-05-03T11:50:58.430Z,15.38
2023-05-03T11:56:01.362Z,14.75
2023-05-03T12:01:03.781Z,13.93
2023-05-03T12:06:06.568Z,14.48
2023-05-03T12:11:09.867Z,14.40
2023-05-03T12:16:15.643Z,14.10
2023-05-03T12:26:25.733Z,14.32
2023-05-03T12:31:29.496Z,14.85
2023-05-03T12:36:37.445Z,14.93
2023-05-03T12:42:06.135Z,15.25
2023-05-03T12:47:02.086Z,14.70
2023-05-03T12:52:32.010Z,15.10
2023-05-03T12:57:30.235Z,14.60
2023-05-03T13:07:42.502Z,14.38
2023-05-03T13:12:45.817Z,13.95
2023-05-03T13:17:49.545Z,14.30
2023-05-03T13:22:52.705Z,14.88
2023-05-03T13:27:54.744Z,14.73
2023-05-03T13:32:56.770Z,14.63
2023-05-03T13:37:58.657Z,14.65
2023-05-03T13:43:00.607Z,14.95
2023-05-03T13:48:16.266Z,14.52
2023-05-03T13:53:20.892Z,14.30
2023-05-03T13:58:22.751Z,14.48
2023-05-03T14:03:24.912Z,14.45
2023-05-03T14:08:26.921Z,14.70
2023-05-03T14:13:32.913Z,14.68
2023-05-03T14:18:39.368Z,15.32
2023-05-03T14:23:41.330Z,15.13
2023-05-03T14:28:43.704Z,15.82
2023-05-03T14:33:45.540Z,15.38
2023-05-03T14:38:47.858Z,15.40
2023-05-03T14:43:49.676Z,14.82
2023-05-03T14:48:51.828Z,14.80
2023-05-03T14:53:53.649Z,15.10
2023-05-03T14:58:55.469Z,15.35
2023-05-03T15:03:57.351Z,14.88
2023-05-03T15:08:59.737Z,15.68
2023-05-03T15:14:01.678Z,15.38
2023-05-03T15:19:03.678Z,15.48
2023-05-03T15:24:05.794Z,15.55
2023-05-03T15:29:07.631Z,14.50
2023-05-03T15:34:11.319Z,14.52
2023-05-03T15:39:13.216Z,14.98
2023-05-03T15:44:16.265Z,15.65
2023-05-03T15:49:18.148Z,15.43
2023-05-03T15:54:19.947Z,16.23
2023-05-03T15:59:21.851Z,16.45
2023-05-03T16:04:25.219Z,16.58
2023-05-03T16:09:28.773Z,16.75
2023-05-03T16:14:30.703Z,17.15
2023-05-03T16:19:32.900Z,17.17
2023-05-03T16:24:35.077Z,17.67
2023-05-03T16:29:37.691Z,17.15
2023-05-03T16:34:39.560Z,17.65
2023-05-03T16:39:41.413Z,17.25
2023-05-03T16:44:43.346Z,16.60
2023-05-03T16:49:45.184Z,17.33
2023-05-03T16:54:47.103Z,15.90
2023-05-03T16:59:48.954Z,16.52
2023-05-03T17:04:50.889Z,16.67
2023-05-03T17:09:52.734Z,16.52
2023-05-03T17:14:55.169Z,17.02
2023-05-03T17:19:57.364Z,16.45
2023-05-03T17:24:59.620Z,16.52
2023-05-03T17:30:01.555Z,16.65
2023-05-03T17:35:03.541Z,16.38
2023-05-03T17:40:09.114Z,16.08
2023-05-03T17:45:11.736Z,16.40
2023-05-03T17:50:13.737Z,16.75
2023-05-03T17:55:18.106Z,16.55
2023-05-03T18:00:21.542Z,16.65
2023-05-03T18:05:23.712Z,17.27
2023-05-03T18:10:25.782Z,17.08
2023-05-03T18:15:27.653Z,15.77
2023-05-03T18:20:29.572Z,16.25
2023-05-03T18:25:31.699Z,16.73
2023-05-03T18:30:33.559Z,16.08
2023-05-03T18:35:35.380Z,15.95
2023-05-03T18:40:37.286Z,15.98
2023-05-03T18:45:40.097Z,15.32
2023-05-03T18:50:44.147Z,15.25
2023-05-03T18:55:46.256Z,15.63
2023-05-03T19:00:48.190Z,14.82
2023-05-03T19:05:50.097Z,14.93
2023-05-03T19:10:51.968Z,14.90
2023-05-03T19:15:53.773Z,14.88
2023-05-03T19:20:56.623Z,14.77
2023-05-03T19:25:58.660Z,15.45
2023-05-03T19:31:06.804Z,15.27
2023-05-03T19:36:13.077Z,14.80
2023-05-03T19:41:14.857Z,14.95
2023-05-03T19:46:19.888Z,14.05
2023-05-03T19:51:21.785Z,14.13
2023-05-03T19:56:25.148Z,14.38
2023-05-03T20:01:27.627Z,14.35
2023-05-03T20:06:29.460Z,14.00
2023-05-03T20:11:31.387Z,13.23
2023-05-03T20:16:38.788Z,12.90
2023-05-03T20:21:40.937Z,12.40
2023-05-03T20:26:42.781Z,11.90
2023-05-03T20:31:46.573Z,11.75
2023-05-03T20:36:51.681Z,11.82
2023-05-03T20:41:53.505Z,12.05
2023-05-03T20:46:55.426Z,12.57
2023-05-03T20:51:57.315Z,12.15
2023-05-03T20:56:59.198Z,12.88
2023-05-03T21:02:01.768Z,11.40
2023-05-03T21:07:04.128Z,11.90
2023-05-03T21:12:06.186Z,11.13
2023-05-03T21:17:08.905Z,10.70
2023-05-03T21:22:11.779Z,11.63
2023-05-03T21:27:13.650Z,10.73
2023-05-03T21:32:15.473Z,10.43
2023-05-03T21:37:17.419Z,10.98
2023-05-03T21:42:19.206Z,11.27
2023-05-03T21:47:21.109Z,10.27
2023-05-03T21:52:23.243Z,10.25
2023-05-03T21:57:28.414Z,9.50
2023-05-03T22:02:30.354Z,9.73
2023-05-03T22:07:32.206Z,9.70
2023-05-03T22:12:34.579Z,10.52
2023-05-03T22:17:36.552Z,10.25
2023-05-03T22:22:38.409Z,9.95
2023-05-03T22:27:40.201Z,10.02
2023-05-03T22:32:42.124Z,9.73
2023-05-03T22:37:43.964Z,9.35
2023-05-03T22:42:45.792Z,9.52
2023-05-03T22:47:47.669Z,9.68
2023-05-03T22:52:49.608Z,9.48
2023-05-03T22:57:51.676Z,8.82
2023-05-03T23:02:53.717Z,8.73
2023-05-03T23:07:55.705Z,8.52
2023-05-03T23:12:57.666Z,8.10
2023-05-03T23:17:59.521Z,8.02
2023-05-03T23:23:01.335Z,8.60
2023-05-03T23:28:02.971Z,7.90
2023-05-03T23:33:05.131Z,8.35
2023-05-03T23:38:07.285Z,8.07
2023-05-03T23:43:09.002Z,8.43
2023-05-03T23:48:11.033Z,8.18
2023-05-03T23:53:12.721Z,8.15
2023-05-03T23:58:14.321Z,7.97
